Time;durP1;ratioP1;P1;durP2;ratioP2;P2;SDS_P1;SDS_P2;PMS_P1;PMS_P2;Temp;Humidity;BMP_temperature;BMP_pressure;BME280_temperature;BME280_humidity;BME280_pressure;Samples;Min_cycle;Max_cycle;Signal;HPM_P1;HPM_P2
2023/03/30 00:00:53;;;;;;;7.88;3.90;;;;;;;;;;4968124;28;20224;-67
2023/03/30 00:03:18;;;;;;;10.38;3.50;;;;;;;;;;4951043;28;20285;-68
2023/03/30 00:05:44;;;;;;;10.23;4.10;;;;;;;;;;4942973;28;20221;-68
2023/03/30 00:08:09;;;;;;;8.27;3.22;;;;;;;;;;4943162;28;20697;-68
2023/03/30 00:10:37;;;;;;;8.88;3.55;;;;;;;;;;4941765;28;20219;-68
2023/03/30 00:13:02;;;;;;;9.32;3.50;;;;;;;;;;4959372;28;20241;-68
2023/03/30 00:15:27;;;;;;;7.95;3.72;;;;;;;;;;4957183;28;20249;-68
2023/03/30 00:17:53;;;;;;;11.68;3.50;;;;;;;;;;4932444;28;20206;-69
2023/03/30 00:20:19;;;;;;;8.50;3.55;;;;;;;;;;4940539;28;20341;-68
2023/03/30 00:22:44;;;;;;;8.65;3.30;;;;;;;;;;4943076;28;21231;-69
2023/03/30 00:25:10;;;;;;;9.55;3.80;;;;;;;;;;4945075;28;20253;-68
2023/03/30 00:27:36;;;;;;;7.70;3.28;;;;;;;;;;4947070;28;20281;-68
2023/03/30 00:30:02;;;;;;;10.00;3.60;;;;;;;;;;4946181;28;20674;-67
2023/03/30 00:32:28;;;;;;;7.40;3.47;;;;;;;;;;4963909;28;20362;-68
2023/03/30 00:34:53;;;;;;;6.85;3.13;;;;;;;;;;4965370;28;20210;-68
2023/03/30 00:37:18;;;;;;;7.25;3.70;;;;;;;;;;4949903;28;20276;-68
2023/03/30 00:39:44;;;;;;;6.90;3.20;;;;;;;;;;4938413;28;20240;-68
2023/03/30 00:42:15;;;;;;;7.60;3.17;;;;;;;;;;4937735;28;20633;-68
2023/03/30 00:44:59;;;;;;;7.63;3.40;;;;;;;;;;4942500;28;20233;-68
2023/03/30 00:47:24;;;;;;;9.38;2.90;;;;;;;;;;4958868;28;20678;-68
2023/03/30 00:49:50;;;;;;;8.30;3.30;;;;;;;;;;4947956;28;20261;-68
2023/03/30 00:52:18;;;;;;;6.68;3.13;;;;;;;;;;4946618;28;20216;-68
2023/03/30 00:54:43;;;;;;;9.00;3.45;;;;;;;;;;4951205;28;20699;-69
2023/03/30 00:57:08;;;;;;;5.97;2.60;;;;;;;;;;4928273;28;20221;-68
2023/03/30 00:59:34;;;;;;;6.38;3.10;;;;;;;;;;4943838;28;20215;-68
2023/03/30 01:02:00;;;;;;;6.55;2.88;;;;;;;;;;4921221;28;20285;-68
2023/03/30 01:04:27;;;;;;;5.88;2.75;;;;;;;;;;4920984;28;20206;-68
2023/03/30 01:06:54;;;;;;;7.18;2.58;;;;;;;;;;4922453;28;20232;-68
2023/03/30 01:09:19;;;;;;;6.55;2.92;;;;;;;;;;4927846;28;20222;-68
2023/03/30 01:11:44;;;;;;;6.97;2.83;;;;;;;;;;4945644;28;20214;-68
2023/03/30 01:14:10;;;;;;;7.55;2.88;;;;;;;;;;4946830;28;20351;-68
2023/03/30 01:16:40;;;;;;;8.00;2.60;;;;;;;;;;4947228;28;20251;-69
2023/03/30 01:19:06;;;;;;;7.10;2.63;;;;;;;;;;4946945;28;20697;-68
2023/03/30 01:21:38;;;;;;;7.07;2.58;;;;;;;;;;4959200;28;20210;-68
2023/03/30 01:24:09;;;;;;;7.55;2.78;;;;;;;;;;4957304;28;20244;-68
2023/03/30 01:26:41;;;;;;;8.85;2.60;;;;;;;;;;4951978;28;20234;-68
2023/03/30 01:29:10;;;;;;;8.50;2.90;;;;;;;;;;4956561;28;20357;-68
2023/03/30 01:31:35;;;;;;;9.35;2.80;;;;;;;;;;4928719;28;20333;-68
2023/03/30 01:34:11;;;;;;;4.78;2.50;;;;;;;;;;4943012;28;20680;-67
2023/03/30 01:36:45;;;;;;;6.63;2.58;;;;;;;;;;4946988;28;20740;-68
2023/03/30 01:39:20;;;;;;;7.65;2.42;;;;;;;;;;4939387;28;20211;-68
2023/03/30 01:41:54;;;;;;;6.57;2.78;;;;;;;;;;4962845;28;20225;-68
2023/03/30 01:44:20;;;;;;;11.40;3.10;;;;;;;;;;4946235;28;20732;-68
2023/03/30 01:46:47;;;;;;;10.55;2.55;;;;;;;;;;4957044;28;20228;-69
2023/03/30 01:49:18;;;;;;;9.63;3.30;;;;;;;;;;4938294;28;20280;-68
2023/03/30 01:51:46;;;;;;;7.85;2.80;;;;;;;;;;4957075;28;20206;-69
2023/03/30 01:54:12;;;;;;;6.97;3.05;;;;;;;;;;4936554;28;20210;-68
2023/03/30 01:56:43;;;;;;;6.97;2.42;;;;;;;;;;4945685;28;20563;-68
2023/03/30 01:59:13;;;;;;;6.82;2.58;;;;;;;;;;4966217;28;20228;-68
2023/03/30 02:01:40;;;;;;;10.48;2.70;;;;;;;;;;4955752;28;20292;-68
2023/03/30 02:04:05;;;;;;;7.78;2.40;;;;;;;;;;4955173;28;20302;-68
2023/03/30 02:06:37;;;;;;;7.35;2.58;;;;;;;;;;4956276;28;20292;-68
2023/03/30 02:09:02;;;;;;;7.15;2.78;;;;;;;;;;4955752;28;20214;-68
2023/03/30 02:11:28;;;;;;;4.68;2.60;;;;;;;;;;4955849;28;20300;-68
2023/03/30 02:13:54;;;;;;;8.07;2.83;;;;;;;;;;4955971;28;20257;-69
2023/03/30 02:16:21;;;;;;;5.93;2.47;;;;;;;;;;4971717;28;20210;-68
2023/03/30 02:18:46;;;;;;;8.57;2.45;;;;;;;;;;4956204;28;20220;-68
2023/03/30 02:21:11;;;;;;;6.57;2.50;;;;;;;;;;4955546;28;20210;-69
2023/03/30 02:23:38;;;;;;;6.10;2.50;;;;;;;;;;4972581;28;20242;-68
2023/03/30 02:26:03;;;;;;;4.90;2.55;;;;;;;;;;4954380;28;20218;-68
2023/03/30 02:28:29;;;;;;;6.97;2.67;;;;;;;;;;4953905;29;20245;-68
2023/03/30 02:30:54;;;;;;;6.18;2.65;;;;;;;;;;4965704;28;20240;-68
2023/03/30 02:33:24;;;;;;;5.35;2.80;;;;;;;;;;4972610;28;20685;-68
2023/03/30 02:36:08;;;;;;;4.68;2.50;;;;;;;;;;4956620;28;20209;-68
2023/03/30 02:38:46;;;;;;;7.03;2.78;;;;;;;;;;4971727;28;20761;-68
2023/03/30 02:41:14;;;;;;;7.03;2.30;;;;;;;;;;4954988;29;20221;-68
2023/03/30 02:43:51;;;;;;;7.53;2.28;;;;;;;;;;4938349;29;20289;-68
2023/03/30 02:46:27;;;;;;;8.57;2.65;;;;;;;;;;4937204;29;20238;-68
2023/03/30 02:48:55;;;;;;;5.63;2.40;;;;;;;;;;4938509;29;20708;-68
2023/03/30 02:51:33;;;;;;;5.57;2.20;;;;;;;;;;4954263;29;20218;-68
2023/03/30 02:53:58;;;;;;;6.68;2.45;;;;;;;;;;4955483;29;20234;-68
2023/03/30 02:56:25;;;;;;;7.55;2.13;;;;;;;;;;4954932;29;20233;-68
2023/03/30 02:58:53;;;;;;;6.03;2.20;;;;;;;;;;4961901;28;20202;-68
2023/03/30 03:01:23;;;;;;;7.47;2.08;;;;;;;;;;4952145;29;20670;-68
2023/03/30 03:03:49;;;;;;;5.15;1.63;;;;;;;;;;4957081;28;20296;-68
2023/03/30 03:06:14;;;;;;;6.68;1.85;;;;;;;;;;4966375;28;20310;-68
2023/03/30 03:08:40;;;;;;;5.00;2.10;;;;;;;;;;4941580;28;20579;-68
2023/03/30 03:11:06;;;;;;;6.53;1.90;;;;;;;;;;4971249;28;20213;-67
2023/03/30 03:13:32;;;;;;;7.03;1.90;;;;;;;;;;4973622;28;20268;-68
2023/03/30 03:15:57;;;;;;;5.75;2.00;;;;;;;;;;4974208;28;20586;-68
2023/03/30 03:18:22;;;;;;;5.82;2.33;;;;;;;;;;4973948;28;20720;-68
2023/03/30 03:20:48;;;;;;;4.50;1.75;;;;;;;;;;4973523;28;20241;-68
2023/03/30 03:23:13;;;;;;;6.90;2.05;;;;;;;;;;4973614;28;20622;-68
2023/03/30 03:25:39;;;;;;;5.55;1.95;;;;;;;;;;4974277;28;20210;-68
2023/03/30 03:28:04;;;;;;;5.55;1.73;;;;;;;;;;4955882;28;20207;-68
2023/03/30 03:30:29;;;;;;;5.47;2.08;;;;;;;;;;4964117;28;20288;-68
2023/03/30 03:32:55;;;;;;;6.80;2.00;;;;;;;;;;4973688;28;20217;-68
2023/03/30 03:35:21;;;;;;;6.30;2.03;;;;;;;;;;4972872;28;20218;-68
2023/03/30 03:37:46;;;;;;;4.70;2.10;;;;;;;;;;4973991;28;20244;-68
2023/03/30 03:40:11;;;;;;;7.35;2.08;;;;;;;;;;4958292;28;20569;-68
2023/03/30 03:42:37;;;;;;;6.53;2.10;;;;;;;;;;4953728;29;20229;-68
2023/03/30 03:45:02;;;;;;;6.15;2.38;;;;;;;;;;4954097;29;20214;-68
2023/03/30 03:47:27;;;;;;;4.57;2.20;;;;;;;;;;4950254;28;20218;-69
2023/03/30 03:49:53;;;;;;;5.20;1.98;;;;;;;;;;4944979;28;20218;-66
2023/03/30 03:52:18;;;;;;;9.27;2.38;;;;;;;;;;4944712;28;20309;-69
2023/03/30 03:54:43;;;;;;;6.97;2.28;;;;;;;;;;4943804;28;20209;-68
2023/03/30 03:57:09;;;;;;;5.85;2.15;;;;;;;;;;4941307;28;20226;-68
2023/03/30 03:59:34;;;;;;;7.25;2.13;;;;;;;;;;4933856;28;20214;-68
2023/03/30 04:01:59;;;;;;;6.93;2.38;;;;;;;;;;4935591;28;20226;-69
2023/03/30 04:04:25;;;;;;;6.88;2.22;;;;;;;;;;4938200;28;20225;-68
2023/03/30 04:06:50;;;;;;;6.22;2.00;;;;;;;;;;4944763;28;20424;-69
2023/03/30 04:09:16;;;;;;;7.68;2.00;;;;;;;;;;4944241;28;20226;-68
2023/03/30 04:11:41;;;;;;;6.63;1.92;;;;;;;;;;4944451;28;20214;-68
2023/03/30 04:14:06;;;;;;;6.05;2.10;;;;;;;;;;4943879;28;20361;-71
2023/03/30 04:16:32;;;;;;;6.53;1.77;;;;;;;;;;4953665;28;20300;-69
2023/03/30 04:18:58;;;;;;;7.95;1.80;;;;;;;;;;4963606;28;20245;-69
2023/03/30 04:21:24;;;;;;;8.98;1.92;;;;;;;;;;4948852;28;20281;-69
2023/03/30 04:23:49;;;;;;;6.40;1.55;;;;;;;;;;4935976;28;20222;-70
2023/03/30 04:26:14;;;;;;;5.97;1.60;;;;;;;;;;4948822;28;20647;-69
2023/03/30 04:28:40;;;;;;;5.82;1.45;;;;;;;;;;4961645;28;20515;-69
2023/03/30 04:31:09;;;;;;;7.10;1.50;;;;;;;;;;4955440;28;20264;-69
2023/03/30 04:33:36;;;;;;;5.13;1.30;;;;;;;;;;4938332;28;20206;-69
2023/03/30 04:36:02;;;;;;;6.32;1.60;;;;;;;;;;4962642;28;20245;-69
2023/03/30 04:38:28;;;;;;;5.22;1.50;;;;;;;;;;4947300;28;20681;-70
2023/03/30 04:40:54;;;;;;;6.05;1.35;;;;;;;;;;4927873;28;20697;-69
2023/03/30 04:43:20;;;;;;;9.50;1.80;;;;;;;;;;4938522;28;20245;-69
2023/03/30 04:45:47;;;;;;;6.05;1.40;;;;;;;;;;4935171;28;20206;-69
2023/03/30 04:48:12;;;;;;;3.45;1.30;;;;;;;;;;4935591;28;20261;-69
2023/03/30 04:50:37;;;;;;;5.05;1.35;;;;;;;;;;4941862;28;20796;-69
2023/03/30 04:53:03;;;;;;;6.72;1.55;;;;;;;;;;4953603;28;20567;-69
2023/03/30 04:55:28;;;;;;;6.90;1.92;;;;;;;;;;4957077;28;20222;-69
2023/03/30 04:57:53;;;;;;;7.68;1.48;;;;;;;;;;4944026;28;20741;-69
2023/03/30 05:00:19;;;;;;;5.97;1.67;;;;;;;;;;4943327;28;20576;-69
2023/03/30 05:02:44;;;;;;;4.68;1.50;;;;;;;;;;4946441;28;20260;-69
2023/03/30 05:05:09;;;;;;;7.25;1.70;;;;;;;;;;4959231;28;20240;-69
2023/03/30 05:07:35;;;;;;;7.32;1.50;;;;;;;;;;4956122;28;20214;-69
2023/03/30 05:10:00;;;;;;;6.70;1.38;;;;;;;;;;4945966;28;20310;-69
2023/03/30 05:12:27;;;;;;;6.40;1.60;;;;;;;;;;4941125;28;20641;-69
2023/03/30 05:14:52;;;;;;;8.75;2.15;;;;;;;;;;4946767;28;20214;-70
2023/03/30 05:17:18;;;;;;;7.25;2.20;;;;;;;;;;4947217;28;20266;-70
2023/03/30 05:19:43;;;;;;;7.32;2.42;;;;;;;;;;4965688;28;20237;-70
2023/03/30 05:22:08;;;;;;;8.95;2.00;;;;;;;;;;4965862;28;20586;-69
2023/03/30 05:24:34;;;;;;;5.95;2.15;;;;;;;;;;4966131;28;20253;-69
2023/03/30 05:27:01;;;;;;;7.95;2.20;;;;;;;;;;4950965;28;20273;-69
2023/03/30 05:29:26;;;;;;;6.82;2.22;;;;;;;;;;4941296;28;20582;-68
2023/03/30 05:31:51;;;;;;;8.82;2.60;;;;;;;;;;4938848;28;20233;-69
2023/03/30 05:34:17;;;;;;;8.00;2.50;;;;;;;;;;4938210;28;20435;-65
2023/03/30 05:36:42;;;;;;;6.93;2.38;;;;;;;;;;4965308;28;20681;-64
2023/03/30 05:39:08;;;;;;;5.80;2.00;;;;;;;;;;4959392;28;20217;-65
2023/03/30 05:41:33;;;;;;;6.10;2.58;;;;;;;;;;4946661;28;20763;-65
2023/03/30 05:43:58;;;;;;;10.45;2.63;;;;;;;;;;4947071;28;20899;-65
2023/03/30 05:46:23;;;;;;;8.05;2.22;;;;;;;;;;4946664;28;20214;-65
2023/03/30 05:48:49;;;;;;;6.00;2.45;;;;;;;;;;4946712;28;20818;-67
2023/03/30 05:51:14;;;;;;;9.10;2.70;;;;;;;;;;4941830;28;20221;-67
2023/03/30 05:53:39;;;;;;;9.80;2.55;;;;;;;;;;4938892;28;20214;-67
2023/03/30 05:56:06;;;;;;;8.80;2.42;;;;;;;;;;4937917;28;20675;-67
2023/03/30 05:58:31;;;;;;;8.00;2.85;;;;;;;;;;4943921;28;20218;-67
2023/03/30 06:00:57;;;;;;;11.10;2.85;;;;;;;;;;4930048;28;20226;-67
2023/03/30 06:03:22;;;;;;;5.57;2.60;;;;;;;;;;4963814;28;20578;-67
2023/03/30 06:05:47;;;;;;;8.02;3.00;;;;;;;;;;4966195;28;20263;-67
2023/03/30 06:08:13;;;;;;;10.10;3.20;;;;;;;;;;4964639;28;20206;-67
2023/03/30 06:10:38;;;;;;;9.95;3.10;;;;;;;;;;4947178;28;20329;-67
2023/03/30 06:13:04;;;;;;;10.35;2.95;;;;;;;;;;4943268;28;20704;-66
2023/03/30 06:15:29;;;;;;;9.30;3.20;;;;;;;;;;4918370;28;20218;-67
2023/03/30 06:17:55;;;;;;;8.35;2.95;;;;;;;;;;4938391;28;20294;-66
2023/03/30 06:20:20;;;;;;;10.20;2.90;;;;;;;;;;4940458;28;20317;-67
2023/03/30 06:22:47;;;;;;;9.18;3.13;;;;;;;;;;4945769;28;20235;-66
2023/03/30 06:25:12;;;;;;;11.93;3.22;;;;;;;;;;4964814;28;20216;-66
2023/03/30 06:27:37;;;;;;;10.07;2.60;;;;;;;;;;4952563;28;20218;-66
2023/03/30 06:30:03;;;;;;;11.70;3.05;;;;;;;;;;4945121;28;20249;-66
2023/03/30 06:32:28;;;;;;;7.68;2.70;;;;;;;;;;4945994;28;20647;-67
2023/03/30 06:34:53;;;;;;;8.40;2.63;;;;;;;;;;4928440;28;20214;-67
2023/03/30 06:37:19;;;;;;;8.20;2.95;;;;;;;;;;4910150;28;20698;-65
2023/03/30 06:39:45;;;;;;;7.80;3.00;;;;;;;;;;4945122;28;20254;-65
2023/03/30 06:42:10;;;;;;;10.35;2.33;;;;;;;;;;4938524;28;20245;-65
2023/03/30 06:44:35;;;;;;;11.38;2.55;;;;;;;;;;4944819;28;20214;-65
2023/03/30 06:47:01;;;;;;;7.90;2.65;;;;;;;;;;4945283;28;20218;-65
2023/03/30 06:49:27;;;;;;;12.25;3.15;;;;;;;;;;4945997;28;20207;-65
2023/03/30 06:51:52;;;;;;;8.98;2.72;;;;;;;;;;4945280;28;20210;-65
2023/03/30 06:54:19;;;;;;;10.50;2.92;;;;;;;;;;4945627;28;20714;-65
2023/03/30 06:56:45;;;;;;;10.27;3.33;;;;;;;;;;4945968;28;20234;-66
2023/03/30 06:59:11;;;;;;;12.00;2.83;;;;;;;;;;4939016;28;20740;-65
2023/03/30 07:01:36;;;;;;;12.57;3.35;;;;;;;;;;4947805;28;20634;-65
2023/03/30 07:04:01;;;;;;;10.32;3.42;;;;;;;;;;4954188;28;20222;-65
2023/03/30 07:06:27;;;;;;;10.10;3.40;;;;;;;;;;4954733;29;20206;-65
2023/03/30 07:08:52;;;;;;;11.77;3.38;;;;;;;;;;4955170;28;20301;-65
2023/03/30 07:11:17;;;;;;;13.20;2.95;;;;;;;;;;4973291;28;20268;-65
2023/03/30 07:13:43;;;;;;;10.30;2.55;;;;;;;;;;4973343;28;20229;-65
2023/03/30 07:16:08;;;;;;;12.38;2.78;;;;;;;;;;4974026;28;20217;-65
2023/03/30 07:18:33;;;;;;;13.85;2.78;;;;;;;;;;4965621;28;20218;-65
2023/03/30 07:20:59;;;;;;;14.70;2.30;;;;;;;;;;4954761;29;20218;-65
2023/03/30 07:23:24;;;;;;;8.50;2.60;;;;;;;;;;4958163;28;20341;-65
2023/03/30 07:25:50;;;;;;;10.35;2.60;;;;;;;;;;4932794;28;20294;-65
2023/03/30 07:28:15;;;;;;;10.85;2.70;;;;;;;;;;4929536;28;20209;-65
2023/03/30 07:30:41;;;;;;;9.80;3.03;;;;;;;;;;4955699;28;20213;-65
2023/03/30 07:33:06;;;;;;;11.27;2.97;;;;;;;;;;4963566;28;20220;-66
2023/03/30 07:35:31;;;;;;;10.20;2.78;;;;;;;;;;4962080;28;20721;-66
2023/03/30 07:37:56;;;;;;;10.13;2.90;;;;;;;;;;4969506;28;20217;-66
2023/03/30 07:40:22;;;;;;;9.38;3.00;;;;;;;;;;4958874;28;20655;-66
2023/03/30 07:42:47;;;;;;;10.05;2.30;;;;;;;;;;4956741;28;20241;-66
2023/03/30 07:45:13;;;;;;;12.70;2.50;;;;;;;;;;4953838;29;20207;-66
2023/03/30 07:47:38;;;;;;;13.88;3.30;;;;;;;;;;4953929;29;20207;-64
2023/03/30 07:50:05;;;;;;;11.27;2.70;;;;;;;;;;4960406;28;20217;-67
2023/03/30 07:52:31;;;;;;;13.00;3.22;;;;;;;;;;4973898;28;20216;-65
2023/03/30 07:54:56;;;;;;;13.38;2.50;;;;;;;;;;4955497;28;20214;-65
2023/03/30 07:57:21;;;;;;;12.18;2.53;;;;;;;;;;4966911;28;20205;-64
2023/03/30 07:59:47;;;;;;;11.23;2.65;;;;;;;;;;4973435;28;20260;-64
2023/03/30 08:02:13;;;;;;;12.70;2.47;;;;;;;;;;4964991;28;20222;-65
2023/03/30 08:04:38;;;;;;;14.30;3.17;;;;;;;;;;4967841;28;20214;-65
2023/03/30 08:07:03;;;;;;;11.55;2.50;;;;;;;;;;4954064;29;20701;-64
2023/03/30 08:09:29;;;;;;;11.90;2.47;;;;;;;;;;4955792;28;20206;-65
2023/03/30 08:11:55;;;;;;;13.50;2.70;;;;;;;;;;4957651;28;20213;-64
2023/03/30 08:14:22;;;;;;;14.43;2.85;;;;;;;;;;4954241;28;20225;-64
2023/03/30 08:16:47;;;;;;;13.10;3.03;;;;;;;;;;4953667;29;20335;-65
2023/03/30 08:19:12;;;;;;;12.73;2.40;;;;;;;;;;4953800;29;20230;-64
2023/03/30 08:21:38;;;;;;;13.65;3.38;;;;;;;;;;4954230;29;20674;-64
2023/03/30 08:24:03;;;;;;;16.40;3.25;;;;;;;;;;4953156;29;20277;-64
2023/03/30 08:26:29;;;;;;;17.75;3.53;;;;;;;;;;4954099;29;20690;-64
2023/03/30 08:28:55;;;;;;;13.07;2.95;;;;;;;;;;4953174;29;20219;-64
2023/03/30 08:31:20;;;;;;;15.57;2.90;;;;;;;;;;4952513;28;20564;-64
2023/03/30 08:33:46;;;;;;;17.70;3.20;;;;;;;;;;4973569;28;20674;-64
2023/03/30 08:36:11;;;;;;;12.60;2.75;;;;;;;;;;4972006;28;20206;-64
2023/03/30 08:38:38;;;;;;;12.30;3.10;;;;;;;;;;4973538;28;20609;-64
2023/03/30 08:41:15;;;;;;;15.25;3.28;;;;;;;;;;4972733;28;20209;-64
2023/03/30 08:43:46;;;;;;;20.35;3.17;;;;;;;;;;4957800;28;20308;-64
2023/03/30 08:46:13;;;;;;;15.95;3.08;;;;;;;;;;4976762;28;20741;-64
2023/03/30 08:48:41;;;;;;;14.00;2.78;;;;;;;;;;4977331;28;20293;-65
2023/03/30 08:51:07;;;;;;;14.55;3.25;;;;;;;;;;4958754;28;20238;-64
2023/03/30 08:53:33;;;;;;;17.95;3.97;;;;;;;;;;4976912;28;20222;-64
2023/03/30 08:56:09;;;;;;;18.13;3.50;;;;;;;;;;4977144;28;20280;-65
2023/03/30 08:58:47;;;;;;;15.30;3.17;;;;;;;;;;4975657;28;20713;-65
2023/03/30 09:01:23;;;;;;;20.13;4.07;;;;;;;;;;4959183;28;20214;-64
2023/03/30 09:03:55;;;;;;;17.17;3.33;;;;;;;;;;4976563;28;20225;-64
2023/03/30 09:06:22;;;;;;;19.40;3.58;;;;;;;;;;4958728;28;20268;-64
2023/03/30 09:08:48;;;;;;;21.05;3.25;;;;;;;;;;4959420;28;20217;-64
2023/03/30 09:11:14;;;;;;;13.43;3.25;;;;;;;;;;4975421;28;20210;-64
2023/03/30 09:13:40;;;;;;;18.42;3.10;;;;;;;;;;4941819;29;20206;-64
2023/03/30 09:16:13;;;;;;;16.30;3.38;;;;;;;;;;4939848;28;20601;-64
2023/03/30 09:18:38;;;;;;;15.43;2.85;;;;;;;;;;4956701;28;20217;-64
2023/03/30 09:21:04;;;;;;;15.98;3.50;;;;;;;;;;4956499;28;20203;-64
2023/03/30 09:23:30;;;;;;;21.67;3.17;;;;;;;;;;4957149;28;20229;-64
2023/03/30 09:25:57;;;;;;;13.73;3.13;;;;;;;;;;4939653;29;20349;-64
2023/03/30 09:28:31;;;;;;;14.93;3.47;;;;;;;;;;4956408;29;20741;-64
2023/03/30 09:31:01;;;;;;;14.93;3.70;;;;;;;;;;4952965;28;20217;-64
2023/03/30 09:33:32;;;;;;;19.15;3.22;;;;;;;;;;4958063;28;20284;-64
2023/03/30 09:36:02;;;;;;;12.65;2.97;;;;;;;;;;4976318;28;20217;-64
2023/03/30 09:38:29;;;;;;;16.30;3.33;;;;;;;;;;4957041;28;20689;-64
2023/03/30 09:41:11;;;;;;;13.70;3.15;;;;;;;;;;4956117;29;20214;-64
2023/03/30 09:43:40;;;;;;;16.13;3.35;;;;;;;;;;4939097;29;20282;-64
2023/03/30 09:46:06;;;;;;;19.98;4.05;;;;;;;;;;4956482;29;20214;-64
2023/03/30 09:48:38;;;;;;;15.90;3.88;;;;;;;;;;4956264;29;20217;-64
2023/03/30 09:51:12;;;;;;;16.38;3.60;;;;;;;;;;4955950;29;20366;-64
2023/03/30 09:53:37;;;;;;;21.95;4.55;;;;;;;;;;4955119;28;20210;-64
2023/03/30 09:56:08;;;;;;;15.75;3.45;;;;;;;;;;4955849;29;20210;-64
2023/03/30 09:58:34;;;;;;;13.35;3.25;;;;;;;;;;4956848;29;20214;-65
2023/03/30 10:01:01;;;;;;;17.85;4.03;;;;;;;;;;4938663;29;20624;-65
2023/03/30 10:03:27;;;;;;;14.25;3.78;;;;;;;;;;4956173;29;20625;-64
2023/03/30 10:06:00;;;;;;;18.38;4.70;;;;;;;;;;4939107;29;20575;-65
2023/03/30 10:08:26;;;;;;;19.10;4.00;;;;;;;;;;4955193;29;20233;-64
2023/03/30 10:10:52;;;;;;;18.35;4.07;;;;;;;;;;4939277;29;20210;-64
2023/03/30 10:13:19;;;;;;;20.25;3.80;;;;;;;;;;4959869;28;20285;-64
2023/03/30 10:15:45;;;;;;;17.05;3.75;;;;;;;;;;4938780;29;20230;-64
2023/03/30 10:18:18;;;;;;;20.65;3.72;;;;;;;;;;4956004;29;20223;-64
2023/03/30 10:20:51;;;;;;;19.52;3.92;;;;;;;;;;4956433;29;20210;-64
2023/03/30 10:23:17;;;;;;;21.30;3.97;;;;;;;;;;4954653;29;20310;-64
2023/03/30 10:25:45;;;;;;;16.98;3.55;;;;;;;;;;4956279;29;20669;-64
2023/03/30 10:28:20;;;;;;;20.38;3.83;;;;;;;;;;4956308;28;20678;-65
2023/03/30 10:30:56;;;;;;;19.13;3.70;;;;;;;;;;4963431;28;20221;-64
2023/03/30 10:33:22;;;;;;;15.30;3.45;;;;;;;;;;4938549;29;20222;-64
2023/03/30 10:35:47;;;;;;;23.13;3.95;;;;;;;;;;4938129;29;20303;-64
2023/03/30 10:38:13;;;;;;;22.58;4.22;;;;;;;;;;4938308;29;20213;-64
2023/03/30 10:40:39;;;;;;;21.30;3.95;;;;;;;;;;4957219;28;20218;-64
2023/03/30 10:43:05;;;;;;;19.77;4.00;;;;;;;;;;4956568;28;20218;-65
2023/03/30 10:45:32;;;;;;;20.75;4.03;;;;;;;;;;4958030;28;20217;-65
2023/03/30 10:48:00;;;;;;;19.80;3.70;;;;;;;;;;4974963;28;20210;-64
2023/03/30 10:50:34;;;;;;;20.45;4.15;;;;;;;;;;4956763;28;20206;-64
2023/03/30 10:53:05;;;;;;;19.48;3.80;;;;;;;;;;4957432;28;20280;-64
2023/03/30 10:55:31;;;;;;;20.98;4.25;;;;;;;;;;4957312;28;20552;-64
2023/03/30 10:58:10;;;;;;;19.85;4.15;;;;;;;;;;4974039;28;20220;-64
2023/03/30 11:00:42;;;;;;;18.65;4.32;;;;;;;;;;4957190;28;20213;-64
2023/03/30 11:03:09;;;;;;;19.88;3.97;;;;;;;;;;4957069;28;20233;-64
2023/03/30 11:05:37;;;;;;;16.45;4.07;;;;;;;;;;4956546;28;20213;-64
2023/03/30 11:08:05;;;;;;;17.83;4.10;;;;;;;;;;4956825;28;20213;-64
2023/03/30 11:10:31;;;;;;;24.40;4.75;;;;;;;;;;4974291;28;20248;-64
2023/03/30 11:13:02;;;;;;;23.40;4.35;;;;;;;;;;4945098;29;20696;-64
2023/03/30 11:15:30;;;;;;;23.88;4.40;;;;;;;;;;4955041;28;20225;-65
2023/03/30 11:17:59;;;;;;;20.90;4.25;;;;;;;;;;4937327;29;20265;-64
2023/03/30 11:20:26;;;;;;;23.77;4.72;;;;;;;;;;4937660;28;20230;-64
2023/03/30 11:22:55;;;;;;;24.70;4.50;;;;;;;;;;4954919;28;20222;-64
2023/03/30 11:25:21;;;;;;;25.35;5.00;;;;;;;;;;4953801;28;20261;-64
2023/03/30 11:27:58;;;;;;;27.40;4.68;;;;;;;;;;4937752;29;20210;-65
2023/03/30 11:30:25;;;;;;;25.67;4.97;;;;;;;;;;4946178;28;20304;-64
2023/03/30 11:32:58;;;;;;;19.50;4.60;;;;;;;;;;4973316;28;20233;-64
2023/03/30 11:35:38;;;;;;;22.80;4.50;;;;;;;;;;4973779;28;20374;-64
2023/03/30 11:38:15;;;;;;;20.92;5.28;;;;;;;;;;4973480;28;20202;-64
2023/03/30 11:40:43;;;;;;;21.40;4.53;;;;;;;;;;4939825;28;20754;-64
2023/03/30 11:43:10;;;;;;;18.60;4.07;;;;;;;;;;4973370;28;20764;-64
2023/03/30 11:45:38;;;;;;;22.50;4.22;;;;;;;;;;4974231;28;20213;-64
2023/03/30 11:48:11;;;;;;;25.75;4.82;;;;;;;;;;4972661;28;20222;-64
2023/03/30 11:50:38;;;;;;;21.75;4.55;;;;;;;;;;4956665;28;20206;-64
2023/03/30 11:53:04;;;;;;;26.38;4.78;;;;;;;;;;4972751;28;20245;-64
2023/03/30 11:55:46;;;;;;;18.73;4.13;;;;;;;;;;4973733;28;20221;-64
2023/03/30 11:58:14;;;;;;;25.05;4.32;;;;;;;;;;4973510;28;20205;-64
2023/03/30 12:00:48;;;;;;;19.30;3.85;;;;;;;;;;4951911;28;20214;-64
2023/03/30 12:03:13;;;;;;;20.05;4.28;;;;;;;;;;4945219;28;20706;-65
2023/03/30 12:05:43;;;;;;;15.13;3.47;;;;;;;;;;4953699;28;20249;-65
2023/03/30 12:08:13;;;;;;;22.80;4.32;;;;;;;;;;4951872;28;20214;-65
2023/03/30 12:10:39;;;;;;;16.63;3.60;;;;;;;;;;4936841;28;20221;-65
2023/03/30 12:13:05;;;;;;;18.80;3.92;;;;;;;;;;4961517;28;20226;-65
2023/03/30 12:15:48;;;;;;;22.67;3.78;;;;;;;;;;4941282;29;20698;-64
2023/03/30 12:18:13;;;;;;;20.90;4.05;;;;;;;;;;4951969;29;20317;-65
2023/03/30 12:20:42;;;;;;;17.70;3.35;;;;;;;;;;4954146;29;20757;-65
2023/03/30 12:23:24;;;;;;;18.20;3.13;;;;;;;;;;4952887;29;20234;-65
2023/03/30 12:25:59;;;;;;;15.45;2.90;;;;;;;;;;4953887;29;20221;-64
2023/03/30 12:28:25;;;;;;;18.10;3.53;;;;;;;;;;4953035;29;20214;-64
2023/03/30 12:30:51;;;;;;;14.82;2.95;;;;;;;;;;4958580;28;20573;-65
2023/03/30 12:33:17;;;;;;;17.83;3.30;;;;;;;;;;4953471;29;20227;-65
2023/03/30 12:35:42;;;;;;;16.27;3.58;;;;;;;;;;4955086;28;20287;-64
2023/03/30 12:38:12;;;;;;;14.85;3.60;;;;;;;;;;4973058;28;20236;-64
2023/03/30 12:40:37;;;;;;;20.40;3.42;;;;;;;;;;4937519;29;20210;-65
2023/03/30 12:43:13;;;;;;;16.08;2.92;;;;;;;;;;4935443;29;20233;-64
2023/03/30 12:45:47;;;;;;;19.23;3.47;;;;;;;;;;4954170;29;20228;-64
2023/03/30 12:48:21;;;;;;;17.15;3.20;;;;;;;;;;4936345;29;20287;-64
2023/03/30 12:50:57;;;;;;;18.70;2.97;;;;;;;;;;4953296;29;20238;-64
2023/03/30 12:53:26;;;;;;;19.40;3.67;;;;;;;;;;4936518;29;20686;-63
2023/03/30 12:55:56;;;;;;;17.23;3.50;;;;;;;;;;4942671;28;20584;-63
2023/03/30 12:58:25;;;;;;;14.40;3.30;;;;;;;;;;4962212;28;20214;-64
2023/03/30 13:00:56;;;;;;;17.67;3.65;;;;;;;;;;4954529;28;20225;-64
2023/03/30 13:03:35;;;;;;;19.10;3.30;;;;;;;;;;4962398;28;20243;-64
2023/03/30 13:06:01;;;;;;;17.50;3.92;;;;;;;;;;4957989;28;20225;-64
2023/03/30 13:08:38;;;;;;;18.60;3.95;;;;;;;;;;4953759;29;20226;-64
2023/03/30 13:11:06;;;;;;;22.35;3.67;;;;;;;;;;4952636;29;20281;-64
2023/03/30 13:13:45;;;;;;;25.35;3.65;;;;;;;;;;4957633;28;20690;-64
2023/03/30 13:16:11;;;;;;;21.17;3.95;;;;;;;;;;4953444;29;20214;-64
2023/03/30 13:18:40;;;;;;;19.42;3.38;;;;;;;;;;4935693;29;20218;-64
2023/03/30 13:21:15;;;;;;;20.25;3.33;;;;;;;;;;4936215;29;20206;-64
2023/03/30 13:23:42;;;;;;;16.80;3.65;;;;;;;;;;4953693;29;20222;-64
2023/03/30 13:26:26;;;;;;;17.55;3.00;;;;;;;;;;4953620;28;20257;-63
2023/03/30 13:28:53;;;;;;;16.70;3.55;;;;;;;;;;4972789;28;20272;-64
2023/03/30 13:31:22;;;;;;;22.95;3.33;;;;;;;;;;4958952;28;20246;-64
2023/03/30 13:33:49;;;;;;;20.38;3.55;;;;;;;;;;4956727;29;20632;-64
2023/03/30 13:36:15;;;;;;;18.35;3.35;;;;;;;;;;4956658;29;20217;-64
2023/03/30 13:38:47;;;;;;;17.88;3.60;;;;;;;;;;4942203;28;20202;-64
2023/03/30 13:41:12;;;;;;;20.02;3.88;;;;;;;;;;4958334;28;20293;-63
2023/03/30 13:43:46;;;;;;;18.48;4.22;;;;;;;;;;4975870;28;20317;-64
2023/03/30 13:46:13;;;;;;;18.23;3.50;;;;;;;;;;4957737;28;20214;-64
2023/03/30 13:48:46;;;;;;;20.38;3.63;;;;;;;;;;4958531;28;20216;-64
2023/03/30 13:51:12;;;;;;;19.08;2.95;;;;;;;;;;4975675;28;20689;-64
2023/03/30 13:53:37;;;;;;;18.75;3.08;;;;;;;;;;4975221;28;20225;-64
2023/03/30 13:56:05;;;;;;;20.95;3.70;;;;;;;;;;4956875;28;20588;-64
2023/03/30 13:58:32;;;;;;;20.42;3.55;;;;;;;;;;4946731;28;20321;-64
2023/03/30 14:00:59;;;;;;;18.58;3.63;;;;;;;;;;4960847;28;20222;-64
2023/03/30 14:03:30;;;;;;;18.30;3.50;;;;;;;;;;4943424;28;20245;-64
2023/03/30 14:06:01;;;;;;;18.85;3.58;;;;;;;;;;4966173;28;20249;-64
2023/03/30 14:08:26;;;;;;;15.95;3.70;;;;;;;;;;4968514;28;20292;-64
2023/03/30 14:10:51;;;;;;;16.98;3.30;;;;;;;;;;4969365;28;20265;-64
2023/03/30 14:13:17;;;;;;;21.65;4.00;;;;;;;;;;4937780;28;20214;-64
2023/03/30 14:15:42;;;;;;;16.83;3.78;;;;;;;;;;4960065;28;20288;-64
2023/03/30 14:18:10;;;;;;;18.33;3.45;;;;;;;;;;4951657;28;20226;-63
2023/03/30 14:20:54;;;;;;;17.98;3.83;;;;;;;;;;4912402;28;20600;-62
2023/03/30 14:23:25;;;;;;;14.68;3.25;;;;;;;;;;4942057;28;20245;-65
2023/03/30 14:25:52;;;;;;;18.70;3.28;;;;;;;;;;4942054;28;20675;-64
2023/03/30 14:28:18;;;;;;;19.65;3.30;;;;;;;;;;4945745;28;20226;-64
2023/03/30 14:31:03;;;;;;;14.57;2.72;;;;;;;;;;4950223;28;20633;-64
2023/03/30 14:33:28;;;;;;;15.65;2.70;;;;;;;;;;4965194;28;20267;-64
2023/03/30 14:35:55;;;;;;;19.02;3.25;;;;;;;;;;4949163;28;20581;-65
2023/03/30 14:38:27;;;;;;;16.02;2.88;;;;;;;;;;4933156;28;20214;-64